Time;durP1;ratioP1;P1;durP2;ratioP2;P2;SDS_P1;SDS_P2;PMS_P1;PMS_P2;Temp;Humidity;BMP_temperature;BMP_pressure;BME280_temperature;BME280_humidity;BME280_pressure;Samples;Min_cycle;Max_cycle;Signal;HPM_P1;HPM_P2
2023/09/25 00:01:50;;;;;;;28.80;27.00;;;;;;;19.72;100.00;101308.53;5031518;28;20041;-73
2023/09/25 00:04:23;;;;;;;29.10;27.30;;;;;;;19.63;100.00;101313.50;5031645;28;20107;-73
2023/09/25 00:06:53;;;;;;;29.67;27.77;;;;;;;19.61;100.00;101307.59;5031799;28;20080;-73
2023/09/25 00:09:23;;;;;;;29.23;27.42;;;;;;;19.64;100.00;101307.09;5033043;28;20049;-73
2023/09/25 00:11:49;;;;;;;28.02;26.23;;;;;;;19.52;100.00;101313.66;5040394;28;20056;-74
2023/09/25 00:14:16;;;;;;;29.30;27.50;;;;;;;19.42;100.00;101309.75;5034006;28;20060;-73
2023/09/25 00:16:43;;;;;;;28.75;26.67;;;;;;;19.31;100.00;101307.22;5036623;28;20068;-74
2023/09/25 00:19:10;;;;;;;31.83;29.67;;;;;;;19.29;100.00;101304.75;5031901;28;20506;-73
2023/09/25 00:21:44;;;;;;;29.05;27.15;;;;;;;19.39;100.00;101317.53;5030805;28;20050;-73
2023/09/25 00:24:12;;;;;;;30.23;28.42;;;;;;;19.32;100.00;101312.34;5031306;28;20507;-73
2023/09/25 00:26:41;;;;;;;29.38;27.48;;;;;;;19.11;100.00;101310.44;5030816;28;20093;-74
2023/09/25 00:29:09;;;;;;;31.98;29.67;;;;;;;19.19;100.00;101313.50;5024835;28;20136;-73
2023/09/25 00:31:37;;;;;;;33.88;30.67;;;;;;;19.12;100.00;101309.34;5031262;28;20147;-73
2023/09/25 00:34:04;;;;;;;29.33;27.48;;;;;;;19.15;100.00;101304.31;5030737;28;20145;-73
2023/09/25 00:36:30;;;;;;;29.85;27.95;;;;;;;19.29;100.00;101310.13;5031029;28;20068;-74
2023/09/25 00:38:59;;;;;;;29.83;27.92;;;;;;;19.42;100.00;101309.75;5030223;28;20045;-75
2023/09/25 00:41:25;;;;;;;32.70;30.70;;;;;;;19.90;100.00;101305.50;5030774;28;20072;-74
2023/09/25 00:43:52;;;;;;;31.02;29.13;;;;;;;20.45;100.00;101302.75;5022175;28;20503;-73
2023/09/25 00:46:22;;;;;;;31.27;29.27;;;;;;;20.13;100.00;101308.97;5029920;28;20132;-74
2023/09/25 00:48:49;;;;;;;31.23;29.42;;;;;;;20.96;100.00;101292.34;5030898;28;20049;-73
2023/09/25 00:51:16;;;;;;;30.35;28.45;;;;;;;20.72;100.00;101292.72;5031055;28;20050;-73
2023/09/25 00:53:45;;;;;;;30.17;28.27;;;;;;;20.64;100.00;101293.22;5030714;28;20515;-74
2023/09/25 00:56:13;;;;;;;28.98;27.17;;;;;;;20.66;100.00;101290.25;5030365;28;20151;-74
2023/09/25 00:58:40;;;;;;;27.20;25.35;;;;;;;19.92;100.00;101312.53;5025828;28;20522;-73
2023/09/25 01:01:08;;;;;;;31.70;29.60;;;;;;;20.08;100.00;101300.81;5031129;28;20064;-73
2023/09/25 01:03:35;;;;;;;30.00;28.10;;;;;;;20.58;100.00;101300.47;5031011;28;20466;-74
2023/09/25 01:06:04;;;;;;;30.73;28.73;;;;;;;20.17;100.00;101301.97;5030202;28;20045;-73
2023/09/25 01:08:31;;;;;;;29.92;27.92;;;;;;;20.20;100.00;101312.25;5028485;28;20053;-73
2023/09/25 01:10:59;;;;;;;30.65;28.65;;;;;;;20.07;100.00;101310.78;5030634;28;20057;-74
2023/09/25 01:13:30;;;;;;;27.83;25.88;;;;;;;20.91;100.00;101300.41;5029487;28;20050;-73
2023/09/25 01:15:57;;;;;;;31.50;29.30;;;;;;;19.87;100.00;101311.38;5030677;28;20151;-73
2023/09/25 01:18:24;;;;;;;35.90;33.60;;;;;;;21.56;100.00;101306.44;5030122;28;20446;-73
2023/09/25 01:20:51;;;;;;;32.75;30.65;;;;;;;20.77;100.00;101305.47;5030699;28;20084;-75
2023/09/25 01:23:19;;;;;;;30.00;28.00;;;;;;;20.10;100.00;101310.28;5029995;28;20045;-74
2023/09/25 01:25:48;;;;;;;29.95;28.05;;;;;;;20.46;100.00;101313.31;5029888;28;20037;-74
2023/09/25 01:28:25;;;;;;;32.72;30.75;;;;;;;21.33;100.00;101307.66;5030339;28;20063;-74
2023/09/25 01:31:03;;;;;;;30.20;28.15;;;;;;;20.08;100.00;101311.59;5029399;28;20052;-75
2023/09/25 01:33:30;;;;;;;28.17;26.27;;;;;;;20.12;100.00;101310.84;5028920;28;20041;-74
2023/09/25 01:36:11;;;;;;;29.80;27.70;;;;;;;19.79;100.00;101314.56;5029416;28;20140;-75
2023/09/25 01:38:40;;;;;;;33.22;31.13;;;;;;;20.35;100.00;101312.38;5029920;28;20045;-74
2023/09/25 01:41:07;;;;;;;27.63;25.77;;;;;;;21.64;100.00;101309.44;5030276;28;20053;-75
2023/09/25 01:43:34;;;;;;;29.38;27.48;;;;;;;20.79;100.00;101297.94;5029720;28;20439;-75
2023/09/25 01:46:01;;;;;;;28.35;26.35;;;;;;;19.88;100.00;101304.13;5030074;28;20057;-74
2023/09/25 01:48:28;;;;;;;34.90;32.50;;;;;;;19.43;100.00;101311.41;5028037;28;20045;-74
2023/09/25 01:50:54;;;;;;;31.15;28.95;;;;;;;19.60;100.00;101313.22;5029510;28;20045;-74
2023/09/25 01:53:24;;;;;;;34.65;32.35;;;;;;;19.57;100.00;101316.41;5029608;28;20056;-73
2023/09/25 01:55:52;;;;;;;33.67;31.48;;;;;;;19.64;100.00;101320.59;5020257;28;20057;-74
2023/09/25 01:58:19;;;;;;;29.23;27.05;;;;;;;19.41;100.00;101318.91;5028372;28;20601;-73
2023/09/25 02:00:46;;;;;;;32.28;29.98;;;;;;;19.66;100.00;101328.41;5022403;28;20054;-73
2023/09/25 02:03:13;;;;;;;34.60;32.40;;;;;;;20.16;100.00;101323.81;5029370;28;20046;-75
2023/09/25 02:05:57;;;;;;;38.70;36.20;;;;;;;20.29;100.00;101334.19;5028024;28;20057;-73
2023/09/25 02:08:23;;;;;;;41.97;39.55;;;;;;;19.89;100.00;101328.13;5026757;28;20041;-73
2023/09/25 02:10:52;;;;;;;34.90;32.60;;;;;;;19.88;100.00;101334.59;5030169;28;20439;-74
2023/09/25 02:13:19;;;;;;;37.10;34.70;;;;;;;19.62;100.00;101335.34;5029884;28;20052;-74
2023/09/25 02:15:47;;;;;;;37.75;35.50;;;;;;;20.77;100.00;101335.97;5029795;28;20618;-73
2023/09/25 02:18:14;;;;;;;37.55;35.15;;;;;;;20.24;100.00;101328.72;5029737;28;20061;-73
2023/09/25 02:20:48;;;;;;;36.53;34.00;;;;;;;19.86;100.00;101330.53;5029729;28;20466;-73
2023/09/25 02:23:14;;;;;;;33.88;31.55;;;;;;;19.82;100.00;101334.81;5029229;28;20045;-73
2023/09/25 02:25:41;;;;;;;40.25;37.65;;;;;;;19.71;100.00;101335.75;5029151;28;20438;-73
2023/09/25 02:28:09;;;;;;;41.72;39.13;;;;;;;19.94;100.00;101340.03;5030587;28;20056;-74
2023/09/25 02:30:36;;;;;;;47.80;44.80;;;;;;;19.95;100.00;101342.47;5026120;28;20064;-74
2023/09/25 02:33:10;;;;;;;36.35;33.85;;;;;;;19.54;100.00;101341.97;5029028;28;20107;-75
2023/09/25 02:35:37;;;;;;;37.40;35.03;;;;;;;20.00;100.00;101342.53;5028952;28;20057;-73
2023/09/25 02:38:05;;;;;;;38.42;36.03;;;;;;;19.60;100.00;101342.84;5029878;28;20081;-74
2023/09/25 02:40:33;;;;;;;36.10;33.75;;;;;;;19.77;100.00;101349.03;5029860;28;20057;-73
2023/09/25 02:43:00;;;;;;;34.22;31.83;;;;;;;19.46;100.00;101345.13;5029524;28;20061;-73
2023/09/25 02:45:29;;;;;;;31.08;28.98;;;;;;;19.40;100.00;101352.31;5031117;28;20453;-73
2023/09/25 02:48:01;;;;;;;32.53;30.23;;;;;;;19.31;100.00;101348.41;5033202;28;20056;-72
2023/09/25 02:50:28;;;;;;;30.15;28.05;;;;;;;19.18;100.00;101354.97;5027950;28;20055;-73
2023/09/25 02:52:55;;;;;;;33.05;30.70;;;;;;;19.26;100.00;101358.31;5032348;28;20100;-73
2023/09/25 02:55:24;;;;;;;34.20;31.90;;;;;;;19.23;100.00;101359.59;5032853;28;20053;-73
2023/09/25 02:57:51;;;;;;;32.70;30.50;;;;;;;19.27;100.00;101362.63;5033864;28;20057;-73
2023/09/25 03:00:24;;;;;;;33.38;31.08;;;;;;;19.33;100.00;101364.31;5027615;28;20052;-73
2023/09/25 03:03:01;;;;;;;33.40;31.13;;;;;;;19.41;100.00;101370.09;5031703;28;20057;-76
2023/09/25 03:05:36;;;;;;;29.95;27.85;;;;;;;19.30;100.00;101376.38;5032669;28;20045;-74
2023/09/25 03:08:12;;;;;;;28.00;26.00;;;;;;;19.52;100.00;101384.53;5029029;28;20131;-74
2023/09/25 03:10:39;;;;;;;28.15;26.15;;;;;;;19.44;100.00;101385.75;5032439;28;20434;-73
2023/09/25 03:13:06;;;;;;;27.40;25.40;;;;;;;19.50;100.00;101393.91;5023736;28;20054;-74
2023/09/25 03:15:33;;;;;;;33.88;31.48;;;;;;;19.47;100.00;101394.41;5032665;28;20056;-74
2023/09/25 03:18:03;;;;;;;31.77;29.38;;;;;;;19.58;100.00;101398.88;5032793;28;20515;-74
2023/09/25 03:20:33;;;;;;;30.55;28.35;;;;;;;19.82;100.00;101405.69;5031200;28;20430;-73
2023/09/25 03:23:09;;;;;;;29.35;27.35;;;;;;;19.73;100.00;101395.56;5032416;28;20041;-73
2023/09/25 03:25:36;;;;;;;27.02;25.13;;;;;;;19.82;100.00;101403.00;5032200;28;20077;-73
2023/09/25 03:28:03;;;;;;;28.27;26.27;;;;;;;19.82;100.00;101410.28;5032609;28;20547;-72
2023/09/25 03:30:30;;;;;;;28.60;26.70;;;;;;;19.83;100.00;101412.69;5031719;28;20139;-74
2023/09/25 03:32:58;;;;;;;31.10;29.08;;;;;;;19.74;100.00;101416.09;5031783;28;20063;-73
2023/09/25 03:35:27;;;;;;;32.33;30.13;;;;;;;19.67;100.00;101413.59;5028588;28;20045;-73
2023/09/25 03:37:54;;;;;;;29.20;27.20;;;;;;;19.56;100.00;101412.59;5031214;28;20049;-73
2023/09/25 03:40:21;;;;;;;29.63;27.83;;;;;;;19.31;100.00;101418.44;5031281;28;20068;-74
2023/09/25 03:42:51;;;;;;;30.98;28.88;;;;;;;19.38;100.00;101431.72;5031921;28;20049;-73
2023/09/25 03:45:18;;;;;;;31.42;29.30;;;;;;;19.54;100.00;101422.78;5032321;28;20522;-74
2023/09/25 03:47:44;;;;;;;30.73;28.63;;;;;;;19.74;100.00;101435.75;5031448;28;20045;-74
2023/09/25 03:50:12;;;;;;;28.00;25.92;;;;;;;19.56;100.00;101438.72;5031420;28;20059;-74
2023/09/25 03:52:43;;;;;;;37.30;34.45;;;;;;;19.82;100.00;101445.31;5030862;28;20058;-72
2023/09/25 03:55:10;;;;;;;34.30;31.90;;;;;;;19.75;100.00;101442.78;5030834;28;20049;-72
2023/09/25 03:57:36;;;;;;;28.20;26.30;;;;;;;19.71;100.00;101444.34;5027388;28;20045;-73
2023/09/25 04:00:06;;;;;;;36.28;34.38;;;;;;;21.57;100.00;101444.00;5022631;28;20064;-72
2023/09/25 04:02:32;;;;;;;30.10;28.40;;;;;;;20.65;100.00;101439.78;5027161;28;20045;-72
2023/09/25 04:04:59;;;;;;;30.42;28.73;;;;;;;20.04;100.00;101448.81;5030269;28;20054;-72
2023/09/25 04:07:26;;;;;;;29.30;27.80;;;;;;;19.70;100.00;101460.75;5029748;28;20049;-72
2023/09/25 04:09:54;;;;;;;27.83;26.13;;;;;;;19.66;100.00;101463.94;5029463;28;20140;-71
2023/09/25 04:12:21;;;;;;;30.50;28.70;;;;;;;19.54;100.00;101462.38;5027285;28;20155;-72
2023/09/25 04:14:48;;;;;;;25.70;24.00;;;;;;;19.75;100.00;101472.41;5030072;28;20052;-72
2023/09/25 04:17:15;;;;;;;22.90;21.50;;;;;;;19.70;100.00;101466.13;5029926;28;20054;-73
2023/09/25 04:19:44;;;;;;;22.90;21.60;;;;;;;19.79;100.00;101478.97;5030088;28;20491;-72
2023/09/25 04:22:11;;;;;;;23.33;21.83;;;;;;;19.89;100.00;101472.88;5029974;28;20076;-73
2023/09/25 04:24:38;;;;;;;22.73;21.33;;;;;;;19.90;100.00;101466.41;5030447;28;20502;-72
2023/09/25 04:27:09;;;;;;;22.40;21.10;;;;;;;20.32;100.00;101477.44;5030387;28;20400;-72
2023/09/25 04:29:38;;;;;;;23.40;22.00;;;;;;;20.43;100.00;101472.19;5029316;28;20056;-73
2023/09/25 04:32:06;;;;;;;22.38;20.98;;;;;;;20.10;100.00;101472.06;5029555;28;20050;-73
2023/09/25 04:34:35;;;;;;;22.40;20.92;;;;;;;19.88;100.00;101473.97;5029005;28;20111;-73
2023/09/25 04:37:02;;;;;;;22.65;21.15;;;;;;;19.89;100.00;101476.38;5029965;28;20052;-73
2023/09/25 04:39:32;;;;;;;21.98;20.48;;;;;;;20.13;100.00;101478.84;5033649;28;20504;-74
2023/09/25 04:41:59;;;;;;;22.70;21.17;;;;;;;20.07;100.00;101480.66;5030694;28;20057;-73
2023/09/25 04:44:27;;;;;;;23.15;21.55;;;;;;;20.04;100.00;101478.47;5035118;28;20045;-72
2023/09/25 04:46:55;;;;;;;22.70;21.30;;;;;;;19.93;100.00;101475.88;5031185;28;20048;-72
2023/09/25 04:49:22;;;;;;;23.00;21.50;;;;;;;19.97;100.00;101483.25;5037386;28;20065;-72
2023/09/25 04:51:48;;;;;;;24.25;22.55;;;;;;;19.93;100.00;101481.28;5032977;28;20049;-73
2023/09/25 04:54:15;;;;;;;22.95;21.35;;;;;;;19.98;100.00;101490.25;5034262;28;20044;-72
2023/09/25 04:56:42;;;;;;;23.75;22.15;;;;;;;20.28;100.00;101489.81;5034360;28;20636;-73
2023/09/25 04:59:09;;;;;;;24.05;22.30;;;;;;;20.22;100.00;101484.63;5032531;28;20052;-72
2023/09/25 05:01:37;;;;;;;21.90;20.30;;;;;;;20.15;100.00;101487.47;5034601;28;20044;-73
2023/09/25 05:04:05;;;;;;;22.40;20.90;;;;;;;20.36;100.00;101477.75;5034852;28;20056;-73
2023/09/25 05:06:32;;;;;;;23.67;22.08;;;;;;;20.12;100.00;101471.81;5033171;28;20056;-72
2023/09/25 05:08:59;;;;;;;23.15;21.55;;;;;;;20.29;100.00;101485.22;5033342;28;20068;-73
2023/09/25 05:11:25;;;;;;;22.35;20.75;;;;;;;20.66;100.00;101482.69;5031911;28;20068;-72
2023/09/25 05:13:52;;;;;;;21.08;19.67;;;;;;;20.95;100.00;101490.53;5026754;28;20068;-72
2023/09/25 05:16:19;;;;;;;20.42;18.92;;;;;;;21.13;100.00;101484.75;5027518;28;20053;-73
2023/09/25 05:18:47;;;;;;;19.77;18.27;;;;;;;20.46;100.00;101493.25;5025733;28;20077;-72
2023/09/25 05:21:14;;;;;;;20.55;19.15;;;;;;;20.89;100.00;101497.78;5027507;28;20045;-72
2023/09/25 05:23:41;;;;;;;21.88;20.27;;;;;;;21.20;100.00;101496.13;5028006;28;20042;-72
2023/09/25 05:26:08;;;;;;;21.08;19.58;;;;;;;20.92;100.00;101507.25;5029157;28;20061;-72
2023/09/25 05:28:35;;;;;;;21.38;19.85;;;;;;;20.74;100.00;101497.63;5027777;28;20045;-73
2023/09/25 05:31:02;;;;;;;21.85;20.25;;;;;;;20.59;100.00;101506.38;5027916;28;20045;-73
2023/09/25 05:33:29;;;;;;;22.95;21.25;;;;;;;21.28;100.00;101501.06;5027343;28;20502;-73
2023/09/25 05:35:57;;;;;;;21.80;20.30;;;;;;;21.21;100.00;101497.78;5026499;28;20045;-73
2023/09/25 05:38:24;;;;;;;21.75;20.25;;;;;;;21.65;100.00;101494.06;5027196;28;20506;-74
2023/09/25 05:40:51;;;;;;;22.00;20.50;;;;;;;21.63;100.00;101488.09;5028337;28;20052;-74
2023/09/25 05:43:19;;;;;;;22.73;21.23;;;;;;;21.31;100.00;101496.22;5027478;28;20079;-73
2023/09/25 05:45:46;;;;;;;24.65;23.25;;;;;;;21.66;100.00;101493.78;5032373;28;20040;-73
2023/09/25 05:48:12;;;;;;;23.50;22.20;;;;;;;22.75;100.00;101491.22;5035291;28;20053;-77
2023/09/25 05:50:39;;;;;;;23.25;21.85;;;;;;;21.47;100.00;101506.09;5036702;28;20049;-77
2023/09/25 05:53:08;;;;;;;23.60;22.20;;;;;;;22.21;100.00;101509.75;5035111;28;20053;-76
2023/09/25 05:55:35;;;;;;;23.40;22.10;;;;;;;23.71;100.00;101500.47;5038538;28;20053;-77
2023/09/25 05:58:03;;;;;;;22.85;21.55;;;;;;;23.50;100.00;101499.66;5036845;28;20075;-78
2023/09/25 06:00:30;;;;;;;23.80;22.40;;;;;;;23.05;100.00;101495.91;5025316;28;20046;-77
2023/09/25 06:02:57;;;;;;;26.13;24.73;;;;;;;23.37;100.00;101494.00;5033667;28;20045;-78
2023/09/25 06:05:24;;;;;;;24.10;22.80;;;;;;;24.47;100.00;101492.31;5032252;28;20099;-73
2023/09/25 06:07:54;;;;;;;23.58;22.27;;;;;;;21.91;100.00;101501.25;5028545;28;20246;-73
2023/09/25 06:10:23;;;;;;;22.08;20.88;;;;;;;21.65;100.00;101497.56;5029506;28;20049;-73
2023/09/25 06:12:50;;;;;;;21.83;20.52;;;;;;;21.66;100.00;101506.47;5027262;28;20132;-73
2023/09/25 06:15:17;;;;;;;21.40;20.10;;;;;;;21.97;100.00;101499.38;5033384;28;20073;-73
2023/09/25 06:17:44;;;;;;;20.63;19.42;;;;;;;21.94;100.00;101499.91;5028178;28;20052;-73
2023/09/25 06:20:15;;;;;;;20.55;19.45;;;;;;;21.89;100.00;101514.19;5030836;28;20046;-73
2023/09/25 06:22:43;;;;;;;20.70;19.50;;;;;;;21.65;100.00;101512.97;5035344;28;20553;-73
2023/09/25 06:25:13;;;;;;;18.00;16.90;;;;;;;22.02;100.00;101506.69;5034376;28;20042;-74
2023/09/25 06:27:44;;;;;;;18.85;17.20;;;;;;;22.16;100.00;101513.25;5034801;28;20119;-73
2023/09/25 06:30:12;;;;;;;23.17;22.02;;;;;;;22.27;100.00;101516.81;5032528;28;20132;-73
2023/09/25 06:32:39;;;;;;;21.35;20.25;;;;;;;22.17;100.00;101513.00;5033267;28;20050;-72
2023/09/25 06:35:07;;;;;;;20.85;19.65;;;;;;;23.19;100.00;101514.34;5032056;28;20057;-73
2023/09/25 06:37:34;;;;;;;20.30;19.10;;;;;;;23.39;100.00;101508.91;5035339;28;20099;-73
2023/09/25 06:40:03;;;;;;;21.65;20.35;;;;;;;23.04;100.00;101521.38;5034084;28;20053;-73
2023/09/25 06:42:30;;;;;;;21.63;20.40;;;;;;;22.57;100.00;101519.66;5032073;28;20521;-73
2023/09/25 06:45:00;;;;;;;21.23;20.02;;;;;;;22.81;100.00;101519.13;5038976;28;20037;-73
2023/09/25 06:47:26;;;;;;;20.73;19.52;;;;;;;23.36;100.00;101522.19;5035842;28;20045;-73
2023/09/25 06:49:53;;;;;;;20.00;18.80;;;;;;;23.86;100.00;101513.19;5034654;28;20049;-73
2023/09/25 06:52:20;;;;;;;19.80;18.50;;;;;;;25.03;100.00;101521.84;5035884;28;20084;-73
2023/09/25 06:54:47;;;;;;;20.40;19.20;;;;;;;24.93;100.00;101519.97;5032460;28;20422;-73
2023/09/25 06:57:14;;;;;;;21.02;19.73;;;;;;;25.05;100.00;101528.63;5038509;28;20446;-73
2023/09/25 06:59:41;;;;;;;22.23;20.92;;;;;;;24.35;100.00;101523.28;5028754;28;20045;-73
2023/09/25 07:02:10;;;;;;;20.30;19.00;;;;;;;23.81;100.00;101525.94;5035158;28;20049;-73
2023/09/25 07:04:39;;;;;;;21.88;20.58;;;;;;;24.38;100.00;101517.31;5030209;28;20056;-73
2023/09/25 07:07:06;;;;;;;20.52;19.13;;;;;;;24.94;100.00;101524.34;5030402;28;20494;-73
2023/09/25 07:09:33;;;;;;;21.52;20.13;;;;;;;24.65;100.00;101529.69;5026918;28;20049;-73
2023/09/25 07:12:00;;;;;;;22.00;20.60;;;;;;;24.39;100.00;101529.81;5032346;28;20482;-72
2023/09/25 07:14:27;;;;;;;21.92;20.52;;;;;;;24.18;100.00;101522.84;5033179;28;20505;-72
2023/09/25 07:16:54;;;;;;;22.92;21.42;;;;;;;25.00;100.00;101530.56;5030454;28;20052;-72
2023/09/25 07:19:22;;;;;;;20.20;18.80;;;;;;;24.21;100.00;101530.44;5032343;28;20042;-72
2023/09/25 07:21:49;;;;;;;20.85;19.50;;;;;;;25.44;100.00;101526.94;5038168;28;20042;-72
2023/09/25 07:24:16;;;;;;;20.88;19.48;;;;;;;24.91;100.00;101530.34;5036179;28;20049;-72
2023/09/25 07:26:43;;;;;;;23.55;22.15;;;;;;;24.75;100.00;101535.06;5038556;28;20064;-72
2023/09/25 07:29:10;;;;;;;23.27;21.88;;;;;;;25.06;100.00;101532.13;5025630;28;20046;-72
2023/09/25 07:31:37;;;;;;;21.98;20.58;;;;;;;25.09;100.00;101526.13;5008993;28;20100;-73
2023/09/25 07:34:05;;;;;;;21.83;20.33;;;;;;;24.57;100.00;101520.25;5004995;28;20052;-72
2023/09/25 07:36:34;;;;;;;22.23;20.73;;;;;;;25.18;100.00;101534.53;5008506;28;20054;-72
2023/09/25 07:39:00;;;;;;;21.90;20.40;;;;;;;25.45;100.00;101534.81;5005129;28;20096;-72
2023/09/25 07:41:27;;;;;;;22.23;20.73;;;;;;;24.23;100.00;101537.19;5009025;28;20050;-72
2023/09/25 07:43:55;;;;;;;22.35;20.75;;;;;;;25.36;100.00;101536.53;5006855;28;20042;-72
2023/09/25 07:46:25;;;;;;;22.27;20.88;;;;;;;25.25;100.00;101535.00;5006460;28;20054;-72
2023/09/25 07:48:56;;;;;;;22.60;21.20;;;;;;;25.19;100.00;101536.94;5008330;28;20502;-73
2023/09/25 07:51:24;;;;;;;22.67;21.17;;;;;;;25.18;100.00;101546.19;5005569;28;20496;-73
2023/09/25 07:53:58;;;;;;;22.60;21.20;;;;;;;26.03;100.00;101536.69;5001155;28;20504;-73
2023/09/25 07:56:25;;;;;;;22.33;20.92;;;;;;;26.47;100.00;101539.09;5006162;28;20047;-73
2023/09/25 07:58:56;;;;;;;22.08;20.60;;;;;;;25.51;100.00;101532.88;5007264;28;20049;-73
2023/09/25 08:01:29;;;;;;;22.00;20.50;;;;;;;25.26;100.00;101533.88;5000490;28;20042;-73
2023/09/25 08:03:56;;;;;;;21.25;19.85;;;;;;;25.56;100.00;101530.09;5005510;28;20124;-73
2023/09/25 08:06:24;;;;;;;21.55;20.08;;;;;;;25.17;100.00;101530.16;5003933;28;20038;-73
2023/09/25 08:08:59;;;;;;;21.05;19.55;;;;;;;25.58;100.00;101527.91;5003087;28;20112;-73
2023/09/25 08:11:26;;;;;;;21.73;20.23;;;;;;;25.59;100.00;101529.50;5005702;28;20054;-73
2023/09/25 08:13:55;;;;;;;21.55;20.05;;;;;;;25.65;100.00;101524.81;5008297;28;20526;-73
2023/09/25 08:16:23;;;;;;;20.85;19.55;;;;;;;25.77;100.00;101514.34;5009042;28;20042;-73
2023/09/25 08:18:52;;;;;;;20.73;19.42;;;;;;;26.07;100.00;101513.22;5007602;28;20492;-74
2023/09/25 08:21:19;;;;;;;21.13;19.73;;;;;;;26.56;100.00;101511.25;5010318;28;20071;-73
2023/09/25 08:23:46;;;;;;;21.95;20.55;;;;;;;26.53;100.00;101507.19;5007161;28;20049;-73
2023/09/25 08:26:16;;;;;;;21.08;19.67;;;;;;;26.83;100.00;101500.47;5026358;28;20049;-72
2023/09/25 08:28:43;;;;;;;21.35;19.95;;;;;;;27.07;100.00;101496.84;5021642;28;20049;-72
2023/09/25 08:31:10;;;;;;;21.10;19.70;;;;;;;26.69;100.00;101496.91;5028928;28;20050;-72
2023/09/25 08:33:37;;;;;;;21.75;20.35;;;;;;;26.34;100.00;101496.28;5023786;28;20442;-72
2023/09/25 08:36:04;;;;;;;21.30;19.90;;;;;;;26.38;100.00;101499.22;5025231;28;20429;-72
2023/09/25 08:38:31;;;;;;;21.50;20.10;;;;;;;26.08;100.00;101511.31;5026279;28;20049;-73
2023/09/25 08:40:58;;;;;;;22.02;20.55;;;;;;;26.34;100.00;101498.19;5029557;28;20060;-72
2023/09/25 08:43:29;;;;;;;22.48;21.08;;;;;;;26.29;100.00;101501.78;5024094;28;20475;-73
2023/09/25 08:45:56;;;;;;;20.02;18.73;;;;;;;26.13;100.00;101503.09;5023665;28;20141;-72
2023/09/25 08:48:23;;;;;;;19.40;18.00;;;;;;;26.80;100.00;101495.63;5026459;28;20124;-73
2023/09/25 08:50:51;;;;;;;20.13;18.73;;;;;;;27.21;100.00;101495.00;5020645;28;20136;-75
2023/09/25 08:53:18;;;;;;;19.80;18.40;;;;;;;27.06;100.00;101487.06;5029714;28;20057;-73
2023/09/25 08:55:52;;;;;;;21.45;20.05;;;;;;;26.80;100.00;101492.91;5024909;28;20041;-73
2023/09/25 08:58:19;;;;;;;20.73;19.23;;;;;;;27.31;100.00;101491.28;5021412;28;20061;-73
2023/09/25 09:00:48;;;;;;;20.65;19.15;;;;;;;27.72;100.00;101479.59;4990992;28;20801;-72
2023/09/25 09:03:15;;;;;;;20.20;18.70;;;;;;;27.55;100.00;101480.19;5026994;28;20494;-73
2023/09/25 09:05:41;;;;;;;20.15;18.65;;;;;;;28.11;100.00;101481.84;5045144;28;20045;-74
2023/09/25 09:08:09;;;;;;;20.90;19.30;;;;;;;27.91;100.00;101480.31;5042580;28;20060;-73
2023/09/25 09:10:38;;;;;;;20.80;19.30;;;;;;;27.48;100.00;101477.06;5043061;28;20056;-74
2023/09/25 09:13:09;;;;;;;20.38;18.77;;;;;;;27.64;100.00;101487.38;5041940;28;20045;-73
2023/09/25 09:15:38;;;;;;;20.50;19.00;;;;;;;27.58;100.00;101476.88;5043855;28;20037;-73
2023/09/25 09:18:20;;;;;;;21.48;19.88;;;;;;;27.95;100.00;101484.06;5042542;28;20045;-74
2023/09/25 09:20:47;;;;;;;22.63;20.92;;;;;;;27.66;100.00;101475.34;5042637;28;20141;-73
2023/09/25 09:23:14;;;;;;;22.40;20.80;;;;;;;28.12;100.00;101477.97;5046173;28;20056;-73
2023/09/25 09:25:44;;;;;;;21.85;20.25;;;;;;;28.43;100.00;101469.94;5047974;28;20041;-73
2023/09/25 09:28:11;;;;;;;22.20;20.60;;;;;;;27.86;100.00;101483.16;5047321;28;20136;-73
2023/09/25 09:30:38;;;;;;;22.85;21.15;;;;;;;28.51;100.00;101473.88;5048987;28;20064;-73
2023/09/25 09:33:08;;;;;;;22.33;20.75;;;;;;;28.73;100.00;101484.81;5053008;28;20062;-73
2023/09/25 09:35:36;;;;;;;22.50;20.90;;;;;;;28.08;100.00;101476.97;5055576;28;20507;-73
2023/09/25 09:38:07;;;;;;;23.40;21.70;;;;;;;28.22;100.00;101476.94;5039592;28;20053;-73
2023/09/25 09:40:34;;;;;;;21.88;20.27;;;;;;;28.75;100.00;101466.19;5052069;28;20059;-74
2023/09/25 09:43:03;;;;;;;21.90;20.30;;;;;;;28.84;100.00;101473.63;5048654;28;20384;-73
2023/09/25 09:45:32;;;;;;;21.40;19.80;;;;;;;28.51;100.00;101458.28;5050839;28;20041;-72
2023/09/25 09:48:01;;;;;;;22.73;21.02;;;;;;;28.79;100.00;101476.50;5048553;28;20045;-72
2023/09/25 09:50:29;;;;;;;21.80;20.20;;;;;;;28.88;100.00;101472.69;5050747;28;20053;-72
2023/09/25 09:52:59;;;;;;;20.58;19.02;;;;;;;28.22;100.00;101466.81;5059946;28;20072;-72
2023/09/25 09:55:32;;;;;;;22.85;21.25;;;;;;;29.04;100.00;101464.94;5049320;28;20056;-72
2023/09/25 09:58:00;;;;;;;23.95;21.75;;;;;;;29.44;100.00;101456.75;5060562;28;20049;-73
2023/09/25 10:00:27;;;;;;;22.08;20.40;;;;;;;28.69;100.00;101472.09;5053434;28;20049;-72
2023/09/25 10:02:55;;;;;;;22.67;21.08;;;;;;;29.10;100.00;101473.81;5051642;28;20048;-74
2023/09/25 10:05:22;;;;;;;21.67;20.17;;;;;;;29.12;100.00;101464.19;5047727;28;20090;-74
2023/09/25 10:08:09;;;;;;;21.80;20.30;;;;;;;29.14;100.00;101469.31;5052012;28;20498;-73
2023/09/25 10:10:45;;;;;;;21.90;20.50;;;;;;;29.49;100.00;101459.34;5063102;28;20135;-74
2023/09/25 10:13:15;;;;;;;20.75;19.35;;;;;;;29.67;100.00;101465.72;5051254;28;20053;-73
2023/09/25 10:15:52;;;;;;;21.80;20.30;;;;;;;29.66;100.00;101458.66;5060920;28;20213;-73
2023/09/25 10:18:19;;;;;;;22.00;20.50;;;;;;;28.91;100.00;101452.13;5052568;28;20510;-73
2023/09/25 10:20:46;;;;;;;21.98;20.58;;;;;;;29.53;100.00;101448.59;5059330;28;20053;-80
2023/09/25 10:23:22;;;;;;;22.00;20.50;;;;;;;29.18;100.00;101451.97;5054550;28;20508;-73
2023/09/25 10:25:52;;;;;;;24.20;22.50;;;;;;;30.10;100.00;101432.94;5065722;28;20049;-72
2023/09/25 10:28:23;;;;;;;23.45;21.75;;;;;;;29.32;100.00;101446.44;5063123;28;20564;-73
2023/09/25 10:30:51;;;;;;;21.15;19.65;;;;;;;29.53;100.00;101446.66;5049949;28;20049;-73
2023/09/25 10:33:19;;;;;;;22.60;21.10;;;;;;;30.45;100.00;101429.47;5043592;28;20047;-73
2023/09/25 10:35:48;;;;;;;23.70;22.10;;;;;;;29.50;100.00;101447.28;5060091;28;20060;-74
2023/09/25 10:38:22;;;;;;;22.70;21.20;;;;;;;29.55;100.00;101438.94;5063730;28;20059;-73
2023/09/25 10:40:50;;;;;;;22.40;20.80;;;;;;;29.99;100.00;101434.41;5062137;28;20044;-73
2023/09/25 10:43:19;;;;;;;22.48;20.88;;;;;;;30.45;100.00;101427.53;5052942;28;20064;-73
2023/09/25 10:45:46;;;;;;;23.60;22.00;;;;;;;30.21;100.00;101419.00;5055721;28;20051;-74
2023/09/25 10:48:14;;;;;;;24.70;22.90;;;;;;;28.97;100.00;101426.25;5060691;28;20053;-73
2023/09/25 10:50:43;;;;;;;25.27;23.58;;;;;;;29.44;100.00;101429.41;5062750;28;20053;-72
2023/09/25 10:53:10;;;;;;;24.95;23.25;;;;;;;29.35;100.00;101432.13;5054602;28;20048;-73
2023/09/25 10:55:39;;;;;;;24.63;23.02;;;;;;;29.17;100.00;101433.16;5049572;28;20067;-73
2023/09/25 10:58:07;;;;;;;24.13;22.52;;;;;;;28.98;100.00;101428.66;5061046;28;20063;-73
2023/09/25 11:00:39;;;;;;;24.10;22.60;;;;;;;29.14;100.00;101429.13;5058001;28;20430;-73
2023/09/25 11:03:07;;;;;;;24.55;22.95;;;;;;;29.18;100.00;101421.91;5052985;28;20053;-73
2023/09/25 11:05:37;;;;;;;23.05;21.45;;;;;;;28.88;100.00;101420.75;5063209;28;20056;-74
2023/09/25 11:08:06;;;;;;;24.77;23.08;;;;;;;28.83;100.00;101418.13;5070329;28;20056;-74